createdAt,value
2023-04-26T00:00:29.426Z,100.00
2023-04-26T00:03:14.834Z,100.00
2023-04-26T00:05:43.572Z,100.00
2023-04-26T00:08:11.860Z,100.00
2023-04-26T00:10:40.800Z,100.00
2023-04-26T00:13:08.984Z,100.00
2023-04-26T00:15:37.128Z,100.00
2023-04-26T00:18:05.249Z,100.00
2023-04-26T00:20:33.265Z,100.00
2023-04-26T00:23:01.664Z,100.00
2023-04-26T00:25:29.788Z,100.00
2023-04-26T00:27:57.703Z,100.00
2023-04-26T00:30:25.620Z,100.00
2023-04-26T00:32:53.813Z,100.00
2023-04-26T00:35:23.279Z,100.00
2023-04-26T00:37:51.533Z,100.00
2023-04-26T00:40:20.725Z,100.00
2023-04-26T00:42:48.831Z,100.00
2023-04-26T00:45:17.052Z,100.00
2023-04-26T00:47:45.061Z,100.00
2023-04-26T00:50:12.986Z,100.00
2023-04-26T00:52:40.941Z,100.00
2023-04-26T00:55:10.156Z,100.00
2023-04-26T00:57:40.328Z,100.00
2023-04-26T01:00:09.496Z,100.00
2023-04-26T01:02:38.875Z,100.00
2023-04-26T01:05:09.235Z,100.00
2023-04-26T01:07:39.020Z,100.00
2023-04-26T01:10:09.478Z,100.00
2023-04-26T01:12:38.691Z,100.00
2023-04-26T01:15:07.508Z,100.00
2023-04-26T01:17:37.931Z,100.00
2023-04-26T01:20:08.879Z,100.00
2023-04-26T01:22:36.903Z,100.00
2023-04-26T01:25:07.906Z,100.00
2023-04-26T01:27:36.848Z,100.00
2023-04-26T01:30:05.746Z,100.00
2023-04-26T01:32:35.046Z,100.00
2023-04-26T01:35:03.182Z,100.00
2023-04-26T01:37:31.897Z,100.00
2023-04-26T01:40:00.932Z,100.00
2023-04-26T01:42:28.870Z,100.00
2023-04-26T01:44:56.891Z,100.00
2023-04-26T01:47:26.628Z,100.00
2023-04-26T01:49:55.058Z,100.00
2023-04-26T01:52:23.103Z,100.00
2023-04-26T01:54:51.534Z,100.00
2023-04-26T01:57:21.386Z,100.00
2023-04-26T01:59:49.790Z,100.00
2023-04-26T02:02:21.627Z,100.00
2023-04-26T02:04:49.673Z,100.00
2023-04-26T02:07:17.748Z,100.00
2023-04-26T02:09:49.061Z,100.00
2023-04-26T02:12:17.173Z,100.00
2023-04-26T02:14:45.182Z,100.00
2023-04-26T02:17:14.744Z,100.00
2023-04-26T02:19:43.073Z,100.00
2023-04-26T02:22:11.110Z,100.00
2023-04-26T02:24:42.989Z,100.00
2023-04-26T02:27:10.865Z,100.00
2023-04-26T02:29:44.529Z,100.00
2023-04-26T02:32:14.399Z,100.00
2023-04-26T02:34:43.291Z,100.00
2023-04-26T02:37:11.959Z,100.00
2023-04-26T02:39:41.309Z,100.00
2023-04-26T02:42:10.765Z,100.00
2023-04-26T02:44:39.759Z,100.00
2023-04-26T02:47:08.601Z,100.00
2023-04-26T02:49:37.102Z,100.00
2023-04-26T02:52:05.527Z,100.00
2023-04-26T02:54:34.102Z,100.00
2023-04-26T02:57:02.179Z,100.00
2023-04-26T02:59:30.480Z,100.00
2023-04-26T03:01:59.014Z,100.00
2023-04-26T03:04:27.801Z,100.00
2023-04-26T03:06:55.905Z,100.00
2023-04-26T03:09:24.692Z,100.00
2023-04-26T03:11:52.803Z,100.00
2023-04-26T03:14:21.554Z,100.00
2023-04-26T03:16:50.142Z,100.00
2023-04-26T03:19:18.328Z,100.00
2023-04-26T03:21:47.628Z,100.00
2023-04-26T03:24:15.829Z,100.00
2023-04-26T03:26:44.115Z,100.00
2023-04-26T03:29:13.238Z,100.00
2023-04-26T03:31:41.830Z,100.00
2023-04-26T03:34:10.259Z,100.00
2023-04-26T03:36:38.608Z,100.00
2023-04-26T03:39:06.990Z,100.00
2023-04-26T03:41:39.588Z,100.00
2023-04-26T03:44:08.076Z,100.00
2023-04-26T03:46:36.225Z,100.00
2023-04-26T03:49:05.216Z,100.00
2023-04-26T03:51:33.433Z,100.00
2023-04-26T03:54:01.678Z,100.00
2023-04-26T03:56:30.148Z,100.00
2023-04-26T03:58:58.197Z,100.00
2023-04-26T04:05:30.669Z,100.00
2023-04-26T04:07:59.517Z,100.00
2023-04-26T04:10:27.920Z,100.00
2023-04-26T04:12:56.111Z,100.00
2023-04-26T04:15:24.356Z,100.00
2023-04-26T04:17:52.363Z,100.00
2023-04-26T04:20:21.476Z,100.00
2023-04-26T04:22:49.726Z,100.00
2023-04-26T04:25:17.929Z,100.00
2023-04-26T04:27:46.076Z,100.00
2023-04-26T04:34:40.287Z,100.00
2023-04-26T04:37:09.732Z,100.00
2023-04-26T04:39:38.222Z,100.00
2023-04-26T04:42:06.662Z,100.00
2023-04-26T04:44:35.537Z,100.00
2023-04-26T04:47:04.139Z,100.00
2023-04-26T04:49:32.052Z,100.00
2023-04-26T04:51:59.940Z,100.00
2023-04-26T04:54:28.775Z,100.00
2023-04-26T04:56:57.676Z,100.00
2023-04-26T04:59:25.982Z,100.00
2023-04-26T05:01:54.500Z,100.00
2023-04-26T05:04:22.768Z,100.00
2023-04-26T05:06:51.620Z,100.00
2023-04-26T05:09:19.723Z,100.00
2023-04-26T05:11:47.980Z,100.00
2023-04-26T05:14:16.945Z,100.00
2023-04-26T05:16:44.961Z,99.20
2023-04-26T05:19:15.633Z,97.24
2023-04-26T05:21:43.756Z,98.03
2023-04-26T05:24:13.012Z,94.55
2023-04-26T05:26:42.458Z,94.92
2023-04-26T05:29:31.762Z,93.18
2023-04-26T05:32:22.668Z,88.61
2023-04-26T05:34:57.507Z,87.23
2023-04-26T05:37:25.537Z,88.13
2023-04-26T05:39:53.563Z,86.73
2023-04-26T05:42:21.841Z,83.99
2023-04-26T05:44:50.233Z,83.69
2023-04-26T05:47:18.830Z,82.56
2023-04-26T05:49:46.910Z,83.98
2023-04-26T05:52:14.976Z,83.58
2023-04-26T05:54:43.024Z,82.98
2023-04-26T05:57:11.176Z,82.65
2023-04-26T05:59:40.608Z,82.67
2023-04-26T06:02:08.661Z,81.19
2023-04-26T06:04:36.644Z,78.92
2023-04-26T06:07:08.371Z,79.68
2023-04-26T06:09:36.334Z,78.34
2023-04-26T06:12:04.612Z,78.34
2023-04-26T06:14:34.498Z,75.00
2023-04-26T06:17:06.171Z,76.85
2023-04-26T06:19:35.235Z,76.96
2023-04-26T06:22:03.607Z,75.54
2023-04-26T06:24:31.957Z,73.62
2023-04-26T06:27:00.110Z,73.33
2023-04-26T06:29:32.892Z,74.16
2023-04-26T06:32:01.413Z,72.55
2023-04-26T06:34:30.709Z,70.72
2023-04-26T06:36:58.782Z,67.75
2023-04-26T06:39:28.220Z,64.70
2023-04-26T06:41:56.357Z,65.25
2023-04-26T06:44:31.020Z,65.78
2023-04-26T06:47:09.380Z,65.29
2023-04-26T06:49:37.588Z,64.46
2023-04-26T06:52:08.221Z,63.66
2023-04-26T06:54:45.921Z,63.44
2023-04-26T06:57:18.091Z,64.01
2023-04-26T06:59:46.331Z,63.74
2023-04-26T07:02:15.811Z,62.25
2023-04-26T07:04:44.249Z,61.33
2023-04-26T07:07:13.774Z,61.08
2023-04-26T07:09:41.858Z,60.30
2023-04-26T07:12:14.038Z,60.56
2023-04-26T07:14:43.429Z,60.89
2023-04-26T07:17:11.522Z,60.33
2023-04-26T07:19:39.750Z,60.77
2023-04-26T07:22:07.949Z,59.48
2023-04-26T07:24:36.013Z,59.89
2023-04-26T07:27:04.389Z,60.23
2023-04-26T07:29:32.365Z,59.31
2023-04-26T07:32:00.511Z,59.48
2023-04-26T07:34:28.450Z,60.13
2023-04-26T07:36:56.737Z,61.94
2023-04-26T07:39:24.915Z,63.64
2023-04-26T07:41:53.757Z,62.43
2023-04-26T07:44:22.335Z,62.12
2023-04-26T07:46:51.101Z,61.06
2023-04-26T07:49:18.976Z,61.69
2023-04-26T07:51:47.420Z,62.24
2023-04-26T07:54:15.406Z,61.24
2023-04-26T07:56:43.450Z,60.62
2023-04-26T07:59:11.402Z,61.87
2023-04-26T08:01:39.530Z,62.59
2023-04-26T08:04:08.280Z,63.70
2023-04-26T08:06:37.310Z,63.30
2023-04-26T08:09:05.534Z,63.68
2023-04-26T08:11:33.608Z,64.11
2023-04-26T08:14:01.834Z,64.45
2023-04-26T08:16:29.830Z,65.50
2023-04-26T08:19:02.784Z,67.86
2023-04-26T08:21:31.821Z,66.88
2023-04-26T08:23:59.924Z,65.64
2023-04-26T08:26:27.800Z,65.58
2023-04-26T08:28:55.677Z,65.65
2023-04-26T08:31:23.781Z,65.46
2023-04-26T08:33:51.975Z,67.06
2023-04-26T08:36:20.800Z,67.20
2023-04-26T08:38:48.739Z,67.01
2023-04-26T08:41:23.678Z,66.81
2023-04-26T08:43:52.939Z,66.30
2023-04-26T08:46:21.763Z,66.92
2023-04-26T08:48:59.020Z,66.95
2023-04-26T08:51:29.014Z,66.53
2023-04-26T08:53:59.817Z,65.27
2023-04-26T08:56:28.465Z,64.86
2023-04-26T08:58:57.009Z,64.87
2023-04-26T09:01:26.333Z,64.69
2023-04-26T09:03:57.018Z,64.44
2023-04-26T09:06:28.157Z,64.19
2023-04-26T09:08:57.728Z,64.10
2023-04-26T09:11:26.489Z,64.92
2023-04-26T09:13:54.898Z,64.88
2023-04-26T09:16:43.079Z,64.03
2023-04-26T09:19:11.015Z,64.58
2023-04-26T09:21:47.282Z,64.52
2023-04-26T09:24:16.180Z,64.58
2023-04-26T09:26:44.253Z,64.13
2023-04-26T09:29:12.614Z,63.33
2023-04-26T09:31:45.836Z,62.63
2023-04-26T09:34:16.359Z,62.41
2023-04-26T09:36:57.686Z,62.93
2023-04-26T09:39:38.217Z,61.57
2023-04-26T09:42:12.491Z,59.92
2023-04-26T09:44:40.461Z,59.53
2023-04-26T09:47:10.912Z,60.06
2023-04-26T09:49:48.719Z,60.29
2023-04-26T09:52:18.450Z,58.93
2023-04-26T09:54:52.102Z,59.14
2023-04-26T09:57:24.469Z,58.24
2023-04-26T09:59:55.640Z,58.66
2023-04-26T10:02:26.465Z,59.00
2023-04-26T10:04:57.747Z,57.79
2023-04-26T10:07:26.607Z,58.52
2023-04-26T10:09:57.343Z,58.05
2023-04-26T10:12:25.287Z,57.14
2023-04-26T10:14:53.284Z,56.72
2023-04-26T10:17:22.004Z,56.66
2023-04-26T10:19:53.712Z,55.24
2023-04-26T10:22:24.076Z,54.81
2023-04-26T10:24:54.340Z,55.86
2023-04-26T10:27:44.382Z,55.72
2023-04-26T10:30:17.366Z,53.12
2023-04-26T10:32:57.725Z,53.81
2023-04-26T10:35:30.980Z,53.75
2023-04-26T10:38:02.228Z,54.05
2023-04-26T10:40:36.602Z,54.39
2023-04-26T10:43:17.434Z,54.44
2023-04-26T10:45:46.829Z,54.17
2023-04-26T10:48:19.307Z,54.65
2023-04-26T10:51:04.430Z,54.76
2023-04-26T10:53:33.612Z,55.12
2023-04-26T10:56:02.541Z,55.27
2023-04-26T10:58:35.161Z,55.09
2023-04-26T11:04:53.239Z,55.89
2023-04-26T11:07:37.870Z,56.72
2023-04-26T11:10:12.584Z,56.11
2023-04-26T11:12:42.692Z,55.99
2023-04-26T11:15:12.915Z,56.25
2023-04-26T11:17:40.960Z,55.73
2023-04-26T11:20:10.153Z,55.40
2023-04-26T11:22:42.140Z,55.48
2023-04-26T11:25:13.377Z,55.90
2023-04-26T11:27:44.256Z,56.94
2023-04-26T11:30:13.334Z,56.27
2023-04-26T11:32:41.904Z,54.97
2023-04-26T11:35:10.231Z,54.02
2023-04-26T11:37:38.455Z,54.13
2023-04-26T11:40:10.672Z,53.21
2023-04-26T11:42:38.790Z,53.52
2023-04-26T11:45:08.826Z,52.55
2023-04-26T11:47:37.453Z,52.45
2023-04-26T11:50:07.342Z,52.51
2023-04-26T11:52:35.671Z,52.70
2023-04-26T11:55:07.869Z,52.63
2023-04-26T11:57:36.119Z,53.18
2023-04-26T12:00:14.398Z,52.49
2023-04-26T12:02:46.774Z,52.14
2023-04-26T12:05:24.680Z,52.69
2023-04-26T12:07:57.591Z,53.48
2023-04-26T12:10:27.932Z,53.52
2023-04-26T12:12:58.843Z,54.40
2023-04-26T12:15:32.666Z,53.60
2023-04-26T12:18:10.188Z,53.22
2023-04-26T12:20:41.033Z,53.41
2023-04-26T12:23:13.557Z,54.15
2023-04-26T12:25:52.626Z,55.00
2023-04-26T12:28:21.405Z,55.37
2023-04-26T12:30:50.522Z,54.91
2023-04-26T12:33:23.078Z,54.58
2023-04-26T12:35:51.945Z,54.41
2023-04-26T12:38:20.234Z,54.66
2023-04-26T12:40:48.605Z,55.39
2023-04-26T12:43:18.400Z,55.48
2023-04-26T12:45:47.753Z,54.41
2023-04-26T12:48:16.644Z,53.89
2023-04-26T12:50:45.975Z,53.86
2023-04-26T12:53:14.204Z,53.74
2023-04-26T12:55:42.628Z,53.97
2023-04-26T12:58:11.150Z,54.70
2023-04-26T13:00:39.537Z,55.24
2023-04-26T13:03:07.809Z,55.39
2023-04-26T13:05:36.536Z,55.49
2023-04-26T13:08:04.891Z,54.85
2023-04-26T13:10:33.184Z,55.02
2023-04-26T13:13:01.952Z,54.75
2023-04-26T13:15:30.163Z,54.29
2023-04-26T13:17:58.416Z,54.28
2023-04-26T13:20:28.908Z,54.02
2023-04-26T13:22:58.383Z,54.19
2023-04-26T13:25:26.813Z,53.28
2023-04-26T13:27:55.589Z,53.23
2023-04-26T13:30:23.658Z,53.78
2023-04-26T13:32:52.673Z,53.64
2023-04-26T13:35:21.588Z,53.66
2023-04-26T13:38:07.841Z,52.77
2023-04-26T13:40:37.850Z,52.66
2023-04-26T13:43:06.053Z,53.27
2023-04-26T13:45:36.757Z,52.87
2023-04-26T13:48:05.178Z,52.29
2023-04-26T13:50:33.328Z,50.99
2023-04-26T13:53:01.786Z,50.43
2023-04-26T13:55:30.079Z,50.24
2023-04-26T13:57:58.327Z,49.79
2023-04-26T14:00:26.702Z,50.18
2023-04-26T14:02:55.003Z,51.10
2023-04-26T14:05:23.896Z,51.15
2023-04-26T14:07:54.359Z,50.75
2023-04-26T14:10:23.633Z,49.89
2023-04-26T14:12:52.216Z,50.14
2023-04-26T14:15:20.519Z,50.39
2023-04-26T14:17:48.837Z,50.73
2023-04-26T14:20:17.131Z,50.99
2023-04-26T14:22:45.578Z,51.21
2023-04-26T14:25:13.663Z,51.61
2023-04-26T14:27:41.857Z,51.96
2023-04-26T14:30:10.225Z,52.55
2023-04-26T14:32:38.384Z,53.24
2023-04-26T14:35:07.261Z,53.61
2023-04-26T14:37:35.312Z,53.59
2023-04-26T14:40:04.919Z,54.26
2023-04-26T14:42:33.148Z,54.62
2023-04-26T14:45:02.099Z,54.34
2023-04-26T14:47:31.571Z,54.33
2023-04-26T14:49:59.947Z,54.78
2023-04-26T14:52:29.276Z,54.87
2023-04-26T14:54:58.614Z,54.63
2023-04-26T14:57:27.131Z,54.78
2023-04-26T14:59:56.457Z,54.86
2023-04-26T15:02:24.478Z,55.02
2023-04-26T15:04:52.882Z,55.31
2023-04-26T15:07:31.274Z,55.23
2023-04-26T15:10:00.912Z,55.65
2023-04-26T15:12:29.107Z,55.74
2023-04-26T15:14:57.160Z,55.57
2023-04-26T15:17:25.394Z,55.89
2023-04-26T15:19:53.463Z,56.00
2023-04-26T15:22:21.440Z,56.04
2023-04-26T15:24:51.166Z,56.30
2023-04-26T15:27:21.161Z,56.13
2023-04-26T15:29:49.522Z,55.93
2023-04-26T15:32:17.563Z,56.00
2023-04-26T15:34:45.984Z,56.16
2023-04-26T15:37:14.096Z,56.42
2023-04-26T15:39:42.321Z,56.51
2023-04-26T15:42:11.215Z,56.52
2023-04-26T15:44:39.296Z,56.63
2023-04-26T15:47:07.688Z,56.63
2023-04-26T15:49:36.196Z,56.77
2023-04-26T15:52:04.256Z,56.90
2023-04-26T15:54:32.401Z,57.22
2023-04-26T15:57:00.474Z,57.22
2023-04-26T15:59:30.779Z,57.32
2023-04-26T16:01:59.168Z,57.31
2023-04-26T16:04:27.593Z,57.50
2023-04-26T16:06:56.348Z,57.39
2023-04-26T16:09:26.100Z,57.37
2023-04-26T16:11:55.038Z,57.29
2023-04-26T16:14:23.172Z,58.05
2023-04-26T16:16:51.701Z,58.11
2023-04-26T16:19:19.663Z,57.75
2023-04-26T16:21:47.622Z,58.23
2023-04-26T16:24:16.579Z,58.28
2023-04-26T16:26:44.617Z,58.26
2023-04-26T16:29:13.999Z,58.71
2023-04-26T16:31:42.387Z,58.86
2023-04-26T16:34:10.500Z,58.80
2023-04-26T16:36:38.566Z,59.02
2023-04-26T16:39:07.654Z,58.94
2023-04-26T16:41:35.799Z,59.34
2023-04-26T16:44:03.813Z,59.40
2023-04-26T16:46:32.594Z,59.34
2023-04-26T16:49:00.676Z,59.94
2023-04-26T16:51:28.808Z,59.60
2023-04-26T16:53:56.941Z,59.75
2023-04-26T16:56:25.040Z,60.13
2023-04-26T16:58:53.728Z,60.13
2023-04-26T17:01:21.812Z,60.01
2023-04-26T17:03:50.027Z,60.32
2023-04-26T17:06:18.299Z,60.55
2023-04-26T17:08:46.444Z,60.36
2023-04-26T17:11:16.800Z,60.27
2023-04-26T17:13:45.530Z,60.47
2023-04-26T17:16:13.675Z,60.46
2023-04-26T17:18:41.972Z,60.53
2023-04-26T17:21:10.248Z,60.73
2023-04-26T17:23:38.396Z,60.71
2023-04-26T17:26:06.733Z,60.87
2023-04-26T17:28:34.814Z,60.77
2023-04-26T17:31:03.823Z,61.07
2023-04-26T17:33:32.804Z,61.21
2023-04-26T17:36:01.814Z,61.17
2023-04-26T17:38:30.042Z,61.63
2023-04-26T17:40:59.529Z,61.37
2023-04-26T17:43:27.555Z,61.59
2023-04-26T17:45:57.298Z,61.55
2023-04-26T17:48:25.569Z,61.61
2023-04-26T17:50:53.814Z,61.68
2023-04-26T17:53:22.800Z,61.72
2023-04-26T17:55:52.210Z,61.72
2023-04-26T17:58:20.689Z,61.73
2023-04-26T18:00:49.069Z,61.66
2023-04-26T18:03:18.242Z,61.70
2023-04-26T18:05:47.343Z,61.86
2023-04-26T18:08:15.721Z,61.71
2023-04-26T18:10:43.936Z,61.87
2023-04-26T18:13:12.339Z,62.22
2023-04-26T18:15:40.567Z,62.11
2023-04-26T18:18:09.734Z,62.22
2023-04-26T18:20:38.054Z,62.21
2023-04-26T18:23:06.422Z,62.34
2023-04-26T18:25:34.807Z,62.35
2023-04-26T18:28:02.967Z,62.25
2023-04-26T18:30:31.068Z,62.29
2023-04-26T18:33:08.694Z,62.45
2023-04-26T18:35:36.943Z,62.64
2023-04-26T18:38:06.192Z,62.60
2023-04-26T18:40:34.334Z,62.60
2023-04-26T18:43:02.359Z,62.58
2023-04-26T18:45:33.858Z,62.70
2023-04-26T18:48:02.169Z,63.00
2023-04-26T18:50:30.681Z,63.15
2023-04-26T18:52:58.873Z,63.02
2023-04-26T18:55:27.001Z,63.05
2023-04-26T18:57:55.488Z,63.53
2023-04-26T19:04:34.647Z,63.19
2023-04-26T19:07:02.902Z,63.32
2023-04-26T19:09:46.488Z,63.49
2023-04-26T19:12:15.049Z,63.44
2023-04-26T19:14:43.035Z,63.67
2023-04-26T19:17:11.370Z,64.64
2023-04-26T19:19:39.329Z,64.72
2023-04-26T19:22:07.280Z,64.95
2023-04-26T19:24:35.305Z,65.11
2023-04-26T19:27:03.765Z,65.70
2023-04-26T19:29:31.923Z,66.38
2023-04-26T19:32:04.624Z,66.50
2023-04-26T19:34:38.827Z,66.42
2023-04-26T19:37:07.207Z,66.31
2023-04-26T19:39:35.215Z,66.84
2023-04-26T19:42:03.560Z,66.83
2023-04-26T19:44:31.673Z,67.41
2023-04-26T19:46:59.639Z,67.67
2023-04-26T19:49:29.135Z,66.80
2023-04-26T19:51:57.512Z,67.15
2023-04-26T19:54:25.628Z,67.39
2023-04-26T19:56:53.605Z,67.76
2023-04-26T19:59:22.227Z,68.40
2023-04-26T20:01:51.684Z,68.85
2023-04-26T20:04:21.758Z,69.21
2023-04-26T20:06:49.849Z,69.30
2023-04-26T20:09:18.382Z,69.56
2023-04-26T20:11:46.696Z,69.63
2023-04-26T20:14:14.554Z,69.38
2023-04-26T20:16:42.880Z,69.44
2023-04-26T20:19:10.894Z,69.74
2023-04-26T20:21:38.861Z,69.84
2023-04-26T20:24:07.133Z,70.00
2023-04-26T20:26:35.229Z,69.68
2023-04-26T20:29:03.782Z,69.56
2023-04-26T20:31:33.210Z,70.53
2023-04-26T20:34:01.535Z,70.72
2023-04-26T20:36:29.693Z,70.85
2023-04-26T20:38:57.716Z,70.98
2023-04-26T20:41:25.714Z,70.68
2023-04-26T20:43:53.856Z,70.88
2023-04-26T20:46:21.903Z,71.22
2023-04-26T20:48:49.878Z,71.35
2023-04-26T20:51:18.366Z,71.35
2023-04-26T20:53:48.212Z,71.41
2023-04-26T20:56:16.269Z,71.70
2023-04-26T20:58:44.249Z,71.44
2023-04-26T21:01:12.262Z,71.55
2023-04-26T21:03:40.357Z,71.64
2023-04-26T21:06:08.408Z,71.68
2023-04-26T21:08:37.101Z,71.69
2023-04-26T21:11:05.259Z,72.50
2023-04-26T21:13:34.468Z,72.99
2023-04-26T21:16:03.014Z,73.32
2023-04-26T21:18:31.272Z,73.17
2023-04-26T21:20:59.248Z,73.94
2023-04-26T21:23:27.324Z,74.10
2023-04-26T21:25:57.639Z,74.69
2023-04-26T21:28:25.653Z,74.59
2023-04-26T21:31:07.160Z,75.16
2023-04-26T21:33:35.751Z,74.94
2023-04-26T21:36:05.099Z,75.79
2023-04-26T21:38:33.029Z,76.72
2023-04-26T21:41:01.159Z,76.57
2023-04-26T21:43:29.122Z,76.32
2023-04-26T21:45:58.441Z,75.71
2023-04-26T21:48:26.899Z,75.81
2023-04-26T21:50:54.959Z,75.69
2023-04-26T21:53:23.071Z,76.29
2023-04-26T21:56:05.682Z,77.64
2023-04-26T21:58:33.824Z,77.41
2023-04-26T22:01:10.114Z,77.30
2023-04-26T22:03:38.424Z,78.34
2023-04-26T22:06:07.896Z,78.68
2023-04-26T22:08:35.980Z,77.62
2023-04-26T22:11:04.369Z,78.27
2023-04-26T22:13:32.808Z,78.90
2023-04-26T22:16:01.110Z,79.21
2023-04-26T22:18:29.456Z,78.38
2023-04-26T22:20:57.556Z,78.71
2023-04-26T22:23:26.683Z,78.33
2023-04-26T22:25:54.872Z,78.75
2023-04-26T22:28:22.875Z,78.89
2023-04-26T22:30:51.026Z,78.66
2023-04-26T22:33:19.829Z,78.58
2023-04-26T22:35:48.075Z,78.85
2023-04-26T22:38:16.060Z,78.41
2023-04-26T22:40:43.925Z,78.75
2023-04-26T22:43:11.852Z,78.78
2023-04-26T22:45:39.907Z,78.54
2023-04-26T22:48:07.928Z,78.71
2023-04-26T22:50:36.045Z,78.69
2023-04-26T22:53:04.037Z,78.41
2023-04-26T22:55:32.282Z,78.79
2023-04-26T22:58:00.545Z,79.06
2023-04-26T23:00:28.527Z,79.19
2023-04-26T23:02:56.415Z,79.14
2023-04-26T23:05:24.516Z,79.12
2023-04-26T23:07:52.528Z,79.04
2023-04-26T23:10:21.133Z,79.30
2023-04-26T23:12:50.140Z,79.19
2023-04-26T23:15:19.165Z,79.01
2023-04-26T23:17:47.375Z,78.96
2023-04-26T23:20:15.909Z,79.19
2023-04-26T23:22:44.026Z,79.31
2023-04-26T23:25:12.042Z,79.33
2023-04-26T23:27:40.130Z,79.82
2023-04-26T23:30:08.826Z,80.16
2023-04-26T23:32:36.840Z,80.22
2023-04-26T23:35:05.596Z,80.33
2023-04-26T23:37:33.844Z,80.22
2023-04-26T23:40:01.947Z,80.31
2023-04-26T23:42:29.844Z,80.71
2023-04-26T23:44:57.794Z,81.08
2023-04-26T23:47:27.279Z,80.99
2023-04-26T23:49:55.516Z,81.88
2023-04-26T23:52:23.517Z,81.72
2023-04-26T23:54:51.620Z,81.92
2023-04-26T23:57:20.746Z,81.99
2023-04-26T23:59:48.711Z,82.07
